Terminal Aerodrome Forecast
Issued by NWS

Home | Current Version | Previous Version | Text Only | Print | Product List | Glossary Off
Versions: 1 2 3 4 5 6 7 8 9 10 11 12 13 14 15 16 17 18 19

000
FTUS43 KICT 271213 AAA
TAFCNU
TAF AMD
KCNU 271213Z 2712/2812 14005KT 3SM BR BKN130
      TEMPO 2712/2714 6SM BR
     FM271400 18005KT P6SM BKN100
     FM272100 14007KT P6SM BKN050=

USA.gov is the U.S. government's official web portal to all federal, state and local government web resources and services.